createdAt,value
2022-11-01T00:00:16.084Z,20.58
2022-11-01T00:02:44.696Z,21.15
2022-11-01T00:05:13.347Z,21.20
2022-11-01T00:07:42.106Z,21.13
2022-11-01T00:10:12.473Z,20.17
2022-11-01T00:12:41.372Z,22.10
2022-11-01T00:15:10.417Z,20.70
2022-11-01T00:17:39.567Z,21.70
2022-11-01T00:20:09.209Z,22.30
2022-11-01T00:22:38.069Z,21.08
2022-11-01T00:25:07.712Z,21.38
2022-11-01T00:27:37.545Z,21.33
2022-11-01T00:30:07.710Z,21.25
2022-11-01T00:32:36.272Z,20.75
2022-11-01T00:35:05.343Z,20.65
2022-11-01T00:37:33.834Z,20.33
2022-11-01T00:40:02.672Z,21.10
2022-11-01T00:42:31.204Z,21.42
2022-11-01T00:45:01.303Z,20.48
2022-11-01T00:47:30.405Z,20.83
2022-11-01T00:49:58.920Z,21.58
2022-11-01T00:52:27.406Z,21.60
2022-11-01T00:54:55.996Z,22.08
2022-11-01T00:57:24.500Z,21.92
2022-11-01T01:02:28.380Z,20.60
2022-11-01T01:04:56.985Z,20.92
2022-11-01T01:07:25.608Z,21.10
2022-11-01T01:09:54.247Z,23.48
2022-11-01T01:12:22.869Z,22.02
2022-11-01T01:14:51.890Z,20.77
2022-11-01T01:17:20.517Z,21.88
2022-11-01T01:19:51.315Z,22.33
2022-11-01T01:22:20.004Z,21.88
2022-11-01T01:24:48.559Z,21.63
2022-11-01T01:27:17.334Z,21.48
2022-11-01T01:29:46.244Z,21.90
2022-11-01T01:32:15.287Z,22.35
2022-11-01T01:34:43.799Z,22.42
2022-11-01T01:37:15.202Z,21.83
2022-11-01T01:39:44.065Z,21.95
2022-11-01T01:42:19.271Z,22.27
2022-11-01T01:45:25.374Z,21.88
2022-11-01T01:47:54.703Z,22.35
2022-11-01T01:50:28.281Z,22.42
2022-11-01T01:53:03.557Z,21.65
2022-11-01T01:55:38.125Z,21.27
2022-11-01T01:58:06.683Z,22.95
2022-11-01T02:00:35.280Z,22.65
2022-11-01T02:03:04.152Z,23.48
2022-11-01T02:05:38.477Z,21.65
2022-11-01T02:08:08.479Z,21.83
2022-11-01T02:10:37.229Z,21.88
2022-11-01T02:13:14.116Z,22.75
2022-11-01T02:15:56.869Z,22.52
2022-11-01T02:18:32.182Z,22.55
2022-11-01T02:21:30.454Z,21.48
2022-11-01T02:24:48.459Z,20.52
2022-11-01T02:27:22.684Z,21.38
2022-11-01T02:30:16.709Z,21.52
2022-11-01T02:33:10.252Z,21.42
2022-11-01T02:35:49.026Z,21.42
2022-11-01T02:38:22.778Z,21.27
2022-11-01T02:40:56.363Z,21.15
2022-11-01T02:43:29.394Z,21.48
2022-11-01T02:45:57.955Z,21.58
2022-11-01T02:48:28.102Z,20.55
2022-11-01T02:50:57.962Z,21.08
2022-11-01T02:53:26.537Z,19.83
2022-11-01T02:55:55.259Z,20.92
2022-11-01T02:58:25.671Z,20.90
2022-11-01T03:00:55.733Z,20.23
2022-11-01T03:03:26.362Z,20.23
2022-11-01T03:06:03.905Z,20.17
2022-11-01T03:08:36.619Z,20.13
2022-11-01T03:11:08.183Z,20.02
2022-11-01T03:13:54.584Z,19.70
2022-11-01T03:16:30.302Z,19.70
2022-11-01T03:19:14.554Z,18.90
2022-11-01T03:21:48.373Z,18.25
2022-11-01T03:24:22.188Z,18.42
2022-11-01T03:26:55.598Z,18.40
2022-11-01T03:29:24.163Z,19.65
2022-11-01T03:31:52.719Z,18.30
2022-11-01T03:34:21.279Z,18.08
2022-11-01T03:36:52.595Z,19.00
2022-11-01T03:39:24.528Z,18.48
2022-11-01T03:41:56.031Z,18.25
2022-11-01T03:44:24.645Z,18.00
2022-11-01T03:46:53.223Z,18.60
2022-11-01T03:49:21.859Z,17.77
2022-11-01T03:51:51.807Z,17.98
2022-11-01T03:54:20.309Z,17.95
2022-11-01T03:56:48.873Z,17.42
2022-11-01T03:59:17.573Z,17.48
2022-11-01T04:01:46.462Z,18.10
2022-11-01T04:04:15.189Z,18.00
2022-11-01T04:06:43.827Z,17.42
2022-11-01T04:09:13.756Z,16.88
2022-11-01T04:11:43.649Z,18.73
2022-11-01T04:14:29.580Z,16.95
2022-11-01T04:17:15.544Z,17.08
2022-11-01T04:20:01.474Z,17.23
2022-11-01T04:22:30.035Z,16.65
2022-11-01T04:24:59.948Z,17.10
2022-11-01T04:27:28.595Z,17.00
2022-11-01T04:29:57.103Z,16.52
2022-11-01T04:32:25.870Z,16.80
2022-11-01T04:34:54.415Z,16.70
2022-11-01T04:37:23.151Z,15.77
2022-11-01T04:39:51.710Z,15.05
2022-11-01T04:42:21.788Z,15.88
2022-11-01T04:44:50.350Z,16.25
2022-11-01T04:47:18.954Z,17.10
2022-11-01T04:49:47.493Z,15.77
2022-11-01T04:52:16.072Z,16.17
2022-11-01T04:54:45.585Z,16.40
2022-11-01T04:57:23.011Z,16.20
2022-11-01T04:59:53.237Z,15.60
2022-11-01T05:02:21.980Z,16.17
2022-11-01T05:04:50.561Z,15.98
2022-11-01T05:07:19.227Z,15.52
2022-11-01T05:09:47.696Z,16.05
2022-11-01T05:12:16.248Z,15.27
2022-11-01T05:14:44.729Z,14.52
2022-11-01T05:17:14.597Z,14.55
2022-11-01T05:19:43.315Z,15.15
2022-11-01T05:22:11.861Z,14.82
2022-11-01T05:27:14.275Z,14.68
2022-11-01T05:29:42.871Z,14.68
2022-11-01T05:32:11.334Z,14.63
2022-11-01T05:34:41.215Z,14.25
2022-11-01T05:37:09.813Z,14.23
2022-11-01T05:39:38.287Z,15.00
2022-11-01T05:42:06.856Z,14.77
2022-11-01T05:44:35.534Z,14.57
2022-11-01T05:47:04.982Z,13.82
2022-11-01T05:49:33.678Z,14.48
2022-11-01T05:52:03.561Z,15.32
2022-11-01T05:54:32.264Z,14.93
2022-11-01T05:57:00.778Z,14.45
2022-11-01T05:59:29.366Z,14.73
2022-11-01T06:01:57.999Z,13.68
2022-11-01T06:04:26.652Z,14.00
2022-11-01T06:06:55.116Z,13.43
2022-11-01T06:09:25.088Z,13.52
2022-11-01T06:11:53.668Z,12.70
2022-11-01T06:14:22.299Z,13.13
2022-11-01T06:16:50.842Z,12.73
2022-11-01T06:19:20.362Z,13.55
2022-11-01T06:21:48.902Z,13.48
2022-11-01T06:24:17.857Z,12.80
2022-11-01T06:26:47.812Z,13.18
2022-11-01T06:29:18.064Z,12.50
2022-11-01T06:31:46.680Z,12.75
2022-11-01T06:34:15.446Z,12.70
2022-11-01T06:36:44.170Z,12.70
2022-11-01T06:39:12.841Z,12.35
2022-11-01T06:41:41.394Z,12.98
2022-11-01T06:44:11.473Z,12.77
2022-11-01T06:46:40.283Z,11.48
2022-11-01T06:49:08.785Z,11.68
2022-11-01T06:51:37.340Z,12.07
2022-11-01T06:54:06.198Z,11.95
2022-11-01T06:56:35.020Z,11.30
2022-11-01T06:59:03.868Z,10.95
2022-11-01T07:01:34.242Z,10.98
2022-11-01T07:04:03.157Z,11.60
2022-11-01T07:06:32.025Z,10.45
2022-11-01T07:09:00.973Z,10.68
2022-11-01T07:11:31.683Z,10.98
2022-11-01T07:14:00.717Z,10.70
2022-11-01T07:16:29.661Z,11.35
2022-11-01T07:18:59.824Z,10.75
2022-11-01T07:21:28.825Z,10.88
2022-11-01T07:23:57.605Z,11.43
2022-11-01T07:26:27.391Z,11.15
2022-11-01T07:28:56.526Z,11.50
2022-11-01T07:31:25.658Z,12.40
2022-11-01T07:33:54.895Z,12.00
2022-11-01T07:36:25.200Z,11.48
2022-11-01T07:38:54.132Z,11.38
2022-11-01T07:41:22.983Z,11.75
2022-11-01T07:43:51.826Z,12.15
2022-11-01T07:46:20.624Z,11.20
2022-11-01T07:48:51.074Z,11.20
2022-11-01T07:51:19.863Z,11.07
2022-11-01T07:53:50.195Z,10.65
2022-11-01T07:56:19.044Z,10.45
2022-11-01T07:58:47.965Z,10.70
2022-11-01T08:01:16.889Z,11.13
2022-11-01T08:03:45.916Z,10.70
2022-11-01T08:06:14.737Z,10.63
2022-11-01T08:08:44.605Z,10.98
2022-11-01T08:11:14.797Z,10.38
2022-11-01T08:13:43.622Z,10.93
2022-11-01T08:16:18.090Z,11.07
2022-11-01T08:18:47.364Z,10.43
2022-11-01T08:21:18.768Z,10.52
2022-11-01T08:23:47.772Z,10.43
2022-11-01T08:26:18.653Z,9.90
2022-11-01T08:28:47.631Z,9.93
2022-11-01T08:31:16.552Z,9.82
2022-11-01T08:33:45.570Z,10.15
2022-11-01T08:36:15.448Z,9.35
2022-11-01T08:38:44.401Z,10.10
2022-11-01T08:41:13.275Z,9.88
2022-11-01T08:43:43.434Z,10.30
2022-11-01T08:46:12.237Z,10.20
2022-11-01T08:48:41.180Z,9.95
2022-11-01T08:51:10.807Z,9.73
2022-11-01T08:53:40.010Z,9.13
2022-11-01T08:56:09.218Z,9.75
2022-11-01T08:58:38.057Z,9.85
2022-11-01T09:01:08.458Z,9.60
2022-11-01T09:03:37.502Z,9.45
2022-11-01T09:06:06.621Z,8.98
2022-11-01T09:08:35.419Z,8.77
2022-11-01T09:11:06.212Z,9.60
2022-11-01T09:13:35.023Z,9.25
2022-11-01T09:16:08.356Z,9.30
2022-11-01T09:18:37.653Z,8.75
2022-11-01T09:21:07.307Z,8.32
2022-11-01T09:23:36.229Z,9.07
2022-11-01T09:26:05.699Z,9.80
2022-11-01T09:28:34.639Z,9.00
2022-11-01T09:31:19.420Z,9.52
2022-11-01T09:33:50.396Z,9.15
2022-11-01T09:36:19.121Z,8.88
2022-11-01T09:38:47.723Z,9.38
2022-11-01T09:41:26.001Z,8.88
2022-11-01T09:43:54.620Z,8.82
2022-11-01T09:46:26.383Z,8.85
2022-11-01T09:48:57.118Z,8.23
2022-11-01T09:51:26.258Z,8.77
2022-11-01T09:53:57.661Z,8.80
2022-11-01T09:56:30.492Z,8.52
2022-11-01T09:59:05.775Z,8.55
2022-11-01T10:01:45.113Z,8.48
2022-11-01T10:04:54.123Z,8.20
2022-11-01T10:07:26.836Z,8.60
2022-11-01T10:09:59.606Z,8.45
2022-11-01T10:12:42.753Z,8.10
2022-11-01T10:15:40.571Z,8.40
2022-11-01T10:18:20.487Z,8.57
2022-11-01T10:20:50.359Z,8.50
2022-11-01T10:23:19.024Z,8.63
2022-11-01T10:25:49.029Z,8.30
2022-11-01T10:28:22.079Z,7.97
2022-11-01T10:30:52.691Z,8.90
2022-11-01T10:33:28.842Z,8.70
2022-11-01T10:36:00.412Z,11.30
2022-11-01T10:39:16.629Z,16.23
2022-11-01T10:41:31.168Z,11.43
2022-11-01T10:44:02.490Z,10.18
2022-11-01T10:46:33.400Z,10.90
2022-11-01T10:49:04.267Z,10.60
2022-11-01T10:51:34.980Z,9.20
2022-11-01T10:54:05.074Z,9.52
2022-11-01T10:56:35.539Z,9.32
2022-11-01T10:59:05.847Z,10.55
2022-11-01T11:01:42.564Z,9.25
2022-11-01T11:04:13.764Z,9.93
2022-11-01T11:06:43.747Z,9.57
2022-11-01T11:09:19.252Z,9.98
2022-11-01T11:11:48.067Z,9.75
2022-11-01T11:14:17.485Z,9.95
2022-11-01T11:16:47.798Z,9.70
2022-11-01T11:19:19.683Z,9.32
2022-11-01T11:21:51.121Z,8.70
2022-11-01T11:24:21.236Z,9.73
2022-11-01T11:26:54.218Z,9.25
2022-11-01T11:29:38.629Z,10.00
2022-11-01T11:32:14.632Z,9.57
2022-11-01T11:34:43.399Z,9.38
2022-11-01T11:37:21.574Z,9.48
2022-11-01T11:40:19.870Z,8.98
2022-11-01T11:42:49.792Z,9.52
2022-11-01T11:45:22.916Z,8.73
2022-11-01T11:47:51.521Z,9.40
2022-11-01T11:50:34.103Z,9.80
2022-11-01T11:53:07.948Z,21.13
2022-11-01T11:55:42.518Z,27.88
2022-11-01T11:58:24.389Z,19.75
2022-11-01T12:01:01.604Z,22.13
2022-11-01T12:03:30.165Z,21.48
2022-11-01T12:06:01.468Z,20.85
2022-11-01T12:08:44.977Z,20.80
2022-11-01T12:11:14.072Z,18.80
2022-11-01T12:13:44.667Z,13.98
2022-11-01T12:16:22.551Z,13.95
2022-11-01T12:18:54.111Z,15.38
2022-11-01T12:21:26.691Z,14.50
2022-11-01T12:23:59.988Z,14.13
2022-11-01T12:26:29.290Z,14.93
2022-11-01T12:29:09.474Z,14.57
2022-11-01T12:31:38.153Z,14.82
2022-11-01T12:34:22.828Z,14.13
2022-11-01T12:36:55.204Z,14.50
2022-11-01T12:39:41.368Z,14.10
2022-11-01T12:42:12.156Z,13.55
2022-11-01T12:44:43.086Z,13.90
2022-11-01T12:47:18.521Z,12.93
2022-11-01T12:49:50.437Z,13.90
2022-11-01T12:52:23.600Z,12.93
2022-11-01T12:55:00.536Z,12.73
2022-11-01T12:57:29.441Z,12.60
2022-11-01T12:59:57.912Z,12.40
2022-11-01T13:03:08.408Z,12.20
2022-11-01T13:05:45.684Z,11.63
2022-11-01T13:08:19.110Z,12.13
2022-11-01T13:10:49.057Z,12.43
2022-11-01T13:13:22.608Z,12.77
2022-11-01T13:16:01.870Z,16.95
2022-11-01T13:18:39.306Z,16.80
2022-11-01T13:21:13.105Z,14.13
2022-11-01T13:23:44.569Z,14.88
2022-11-01T13:26:17.359Z,22.88
2022-11-01T13:28:57.999Z,18.00
2022-11-01T13:31:37.720Z,18.60
2022-11-01T13:34:25.099Z,19.13
2022-11-01T13:36:57.622Z,21.27
2022-11-01T13:39:30.006Z,21.08
2022-11-01T13:42:03.884Z,21.67
2022-11-01T13:44:34.379Z,19.38
2022-11-01T13:47:32.404Z,17.95
2022-11-01T13:50:55.630Z,17.35
2022-11-01T13:53:32.109Z,14.55
2022-11-01T13:56:03.606Z,13.70
2022-11-01T13:58:33.915Z,12.27
2022-11-01T14:01:32.667Z,12.27
2022-11-01T14:04:58.374Z,12.70
2022-11-01T14:07:27.550Z,11.27
2022-11-01T14:09:56.519Z,11.55
2022-11-01T14:12:37.937Z,11.35
2022-11-01T14:15:22.130Z,10.80
2022-11-01T14:18:09.830Z,10.93
2022-11-01T14:20:57.611Z,9.75
2022-11-01T14:24:01.694Z,10.30
2022-11-01T14:27:01.955Z,9.95
2022-11-01T14:29:31.329Z,10.70
2022-11-01T14:32:02.007Z,10.63
2022-11-01T14:34:35.880Z,10.68
2022-11-01T14:37:19.890Z,8.90
2022-11-01T14:40:04.073Z,9.35
2022-11-01T14:42:39.948Z,9.02
2022-11-01T14:45:27.754Z,8.40
2022-11-01T14:48:01.823Z,8.93
2022-11-01T14:50:39.873Z,9.20
2022-11-01T14:53:12.477Z,9.45
2022-11-01T14:55:41.044Z,8.82
2022-11-01T14:58:17.569Z,8.77
2022-11-01T15:00:46.637Z,8.32
2022-11-01T15:03:16.681Z,8.75
2022-11-01T15:05:49.849Z,8.55
2022-11-01T15:08:41.995Z,8.18
2022-11-01T15:11:10.556Z,8.65
2022-11-01T15:13:41.668Z,7.85
2022-11-01T15:16:16.118Z,8.85
2022-11-01T15:18:55.054Z,8.15
2022-11-01T15:21:28.849Z,11.07
2022-11-01T15:24:03.861Z,10.48
2022-11-01T15:26:33.064Z,11.98
2022-11-01T15:29:03.501Z,12.68
2022-11-01T15:31:32.364Z,12.38
2022-11-01T15:34:03.979Z,12.98
2022-11-01T15:36:34.792Z,11.27
2022-11-01T15:39:04.983Z,10.15
2022-11-01T15:41:34.756Z,10.00
2022-11-01T15:44:05.372Z,10.05
2022-11-01T15:46:35.346Z,9.57
2022-11-01T15:49:09.686Z,8.95
2022-11-01T15:51:43.069Z,9.90
2022-11-01T15:54:20.844Z,9.85
2022-11-01T15:56:52.853Z,9.35
2022-11-01T15:59:26.731Z,10.45
2022-11-01T16:01:57.522Z,10.02
2022-11-01T16:04:35.401Z,10.30
2022-11-01T16:07:05.492Z,9.73
2022-11-01T16:09:37.941Z,11.68
2022-11-01T16:12:08.705Z,9.75
2022-11-01T16:14:38.339Z,9.48
2022-11-01T16:17:07.921Z,9.88
2022-11-01T16:19:42.568Z,10.32
2022-11-01T16:22:34.894Z,10.32
2022-11-01T16:25:17.209Z,10.27
2022-11-01T16:28:05.101Z,10.13
2022-11-01T16:30:46.320Z,10.48
2022-11-01T16:33:43.552Z,10.82
2022-11-01T16:36:35.780Z,11.32
2022-11-01T16:39:23.140Z,10.02
2022-11-01T16:41:52.767Z,10.73
2022-11-01T16:44:21.374Z,11.35
2022-11-01T16:46:50.054Z,10.35
2022-11-01T16:49:21.645Z,10.88
2022-11-01T16:51:52.367Z,10.82
2022-11-01T16:54:20.946Z,11.07
2022-11-01T16:56:50.842Z,11.27
2022-11-01T16:59:36.067Z,10.10
2022-11-01T17:02:15.434Z,9.38
2022-11-01T17:04:44.077Z,9.98
2022-11-01T17:07:15.383Z,10.65
2022-11-01T17:09:44.214Z,10.07
2022-11-01T17:12:12.842Z,10.23
2022-11-01T17:17:17.547Z,10.13
2022-11-01T17:19:47.652Z,11.05
2022-11-01T17:22:19.230Z,10.02
2022-11-01T17:24:48.420Z,10.30
2022-11-01T17:27:18.663Z,9.95
2022-11-01T17:29:47.528Z,10.57
2022-11-01T17:32:16.327Z,9.88
2022-11-01T17:34:45.156Z,9.70
2022-11-01T17:37:14.566Z,8.95
2022-11-01T17:39:44.899Z,9.73
2022-11-01T17:42:13.580Z,10.13
2022-11-01T17:44:42.374Z,10.48
2022-11-01T17:47:12.153Z,10.30
2022-11-01T17:49:40.849Z,10.25
2022-11-01T17:52:09.386Z,10.30
2022-11-01T17:54:38.269Z,9.85
2022-11-01T17:57:08.112Z,10.32
2022-11-01T17:59:36.875Z,10.48
2022-11-01T18:02:05.655Z,10.80
2022-11-01T18:04:36.497Z,10.88
2022-11-01T18:07:05.483Z,11.35
2022-11-01T18:09:35.070Z,11.32
2022-11-01T18:12:09.101Z,10.88
2022-11-01T18:14:48.723Z,11.68
2022-11-01T18:17:40.112Z,10.85
2022-11-01T18:20:16.141Z,12.02
2022-11-01T18:22:48.932Z,11.02
2022-11-01T18:25:25.302Z,11.23
2022-11-01T18:27:55.692Z,11.52
2022-11-01T18:30:24.859Z,11.23
2022-11-01T18:32:57.490Z,11.55
2022-11-01T18:35:32.395Z,12.38
2022-11-01T18:38:26.364Z,11.15
2022-11-01T18:41:00.257Z,11.63
2022-11-01T18:43:32.705Z,11.05
2022-11-01T18:48:49.988Z,11.30
2022-11-01T18:51:23.728Z,11.45
2022-11-01T18:53:54.445Z,10.80
2022-11-01T18:56:25.556Z,11.10
2022-11-01T18:58:55.969Z,11.85
2022-11-01T19:01:31.838Z,11.35
2022-11-01T19:04:03.729Z,11.00
2022-11-01T19:06:33.662Z,12.02
2022-11-01T19:09:15.392Z,11.32
2022-11-01T19:11:44.900Z,11.63
2022-11-01T19:14:19.450Z,10.82
2022-11-01T19:16:49.183Z,11.48
2022-11-01T19:19:19.486Z,11.50
2022-11-01T19:21:48.107Z,11.55
2022-11-01T19:24:32.289Z,11.57
2022-11-01T19:27:01.294Z,11.30
2022-11-01T19:29:33.755Z,12.55
2022-11-01T19:32:04.981Z,11.40
2022-11-01T19:34:36.517Z,10.70
2022-11-01T19:37:08.486Z,12.18
2022-11-01T19:39:39.052Z,12.23
2022-11-01T19:42:14.238Z,11.43
2022-11-01T19:44:44.372Z,11.55
2022-11-01T19:47:36.115Z,11.60
2022-11-01T19:50:22.137Z,11.98
2022-11-01T19:52:51.972Z,11.68
2022-11-01T19:55:39.276Z,11.95
2022-11-01T19:58:31.051Z,11.27
2022-11-01T20:01:36.183Z,11.68
2022-11-01T20:04:08.327Z,11.68
2022-11-01T20:06:39.865Z,12.35
2022-11-01T20:09:14.094Z,12.48
2022-11-01T20:11:43.182Z,12.30
2022-11-01T20:14:13.261Z,11.18
2022-11-01T20:16:43.405Z,12.05
2022-11-01T20:19:16.387Z,12.30
2022-11-01T20:21:46.897Z,11.32
2022-11-01T20:24:15.667Z,11.68
2022-11-01T20:26:44.270Z,11.88
2022-11-01T20:29:13.108Z,12.00
2022-11-01T20:31:43.085Z,11.57
2022-11-01T20:34:11.748Z,10.85
2022-11-01T20:36:40.460Z,11.77
2022-11-01T20:39:13.069Z,11.80
2022-11-01T20:41:44.193Z,11.85
2022-11-01T20:44:12.932Z,11.60
2022-11-01T20:46:43.718Z,12.00
2022-11-01T20:49:12.522Z,11.63
2022-11-01T20:51:41.654Z,11.50
2022-11-01T20:54:15.227Z,12.32
2022-11-01T20:56:46.066Z,11.70
2022-11-01T20:59:17.229Z,12.13
2022-11-01T21:01:50.543Z,12.30
2022-11-01T21:04:19.355Z,13.10
2022-11-01T21:06:48.002Z,13.25
2022-11-01T21:09:28.713Z,12.88
2022-11-01T21:11:57.452Z,13.05
2022-11-01T21:14:26.110Z,13.88
2022-11-01T21:16:59.066Z,13.50
2022-11-01T21:19:27.861Z,13.93
2022-11-01T21:21:58.688Z,14.15
2022-11-01T21:24:36.552Z,15.55
2022-11-01T21:27:27.102Z,14.52
2022-11-01T21:30:04.324Z,14.60
2022-11-01T21:32:42.499Z,14.95
2022-11-01T21:35:40.231Z,14.63
2022-11-01T21:38:36.480Z,13.80
2022-11-01T21:41:22.493Z,14.57
2022-11-01T21:43:51.075Z,13.38
2022-11-01T21:46:22.381Z,13.68
2022-11-01T21:48:55.039Z,14.27
2022-11-01T21:51:23.613Z,13.75
2022-11-01T21:53:52.256Z,13.70
2022-11-01T21:56:20.785Z,13.75
2022-11-01T21:58:49.302Z,14.35
2022-11-01T22:01:18.098Z,13.90
2022-11-01T22:03:46.686Z,13.52
2022-11-01T22:06:16.679Z,13.60
2022-11-01T22:08:45.219Z,12.82
2022-11-01T22:11:13.724Z,13.18
2022-11-01T22:13:42.290Z,12.05
2022-11-01T22:16:10.873Z,13.45
2022-11-01T22:18:39.777Z,13.55
2022-11-01T22:21:08.463Z,12.90
2022-11-01T22:23:38.429Z,12.85
2022-11-01T22:26:07.236Z,13.00
2022-11-01T22:28:35.879Z,13.82
2022-11-01T22:31:04.584Z,12.20
2022-11-01T22:33:33.303Z,13.38
2022-11-01T22:36:02.233Z,12.80
2022-11-01T22:38:35.703Z,13.25
2022-11-01T22:41:11.781Z,13.23
2022-11-01T22:43:42.582Z,13.50
2022-11-01T22:46:21.844Z,13.02
2022-11-01T22:48:51.205Z,13.18
2022-11-01T22:51:26.100Z,12.43
2022-11-01T22:53:55.290Z,12.95
2022-11-01T22:56:25.524Z,13.18
2022-11-01T22:58:54.332Z,13.48
2022-11-01T23:01:27.900Z,13.57
2022-11-01T23:03:59.802Z,13.80
2022-11-01T23:06:33.398Z,14.27
2022-11-01T23:09:13.980Z,14.20
2022-11-01T23:12:02.770Z,13.82
2022-11-01T23:14:37.979Z,12.75
2022-11-01T23:17:29.021Z,14.27
2022-11-01T23:19:59.484Z,13.32
2022-11-01T23:22:33.045Z,13.52
2022-11-01T23:25:01.686Z,12.77
2022-11-01T23:27:31.962Z,13.48
2022-11-01T23:30:01.191Z,14.15
2022-11-01T23:32:29.870Z,12.65
2022-11-01T23:35:04.392Z,13.48
2022-11-01T23:37:32.948Z,13.55
2022-11-01T23:40:01.487Z,13.52
2022-11-01T23:42:31.464Z,13.75
2022-11-01T23:45:00.330Z,12.90
2022-11-01T23:47:33.525Z,12.75
2022-11-01T23:50:04.441Z,13.93
2022-11-01T23:52:40.655Z,12.82
2022-11-01T23:55:19.204Z,12.95
2022-11-01T23:57:49.792Z,13.75
